Time;durP1;ratioP1;P1;durP2;ratioP2;P2;SDS_P1;SDS_P2;PMS_P1;PMS_P2;Temp;Humidity;BMP_temperature;BMP_pressure;BME280_temperature;BME280_humidity;BME280_pressure;Samples;Min_cycle;Max_cycle;Signal;HPM_P1;HPM_P2
2023/06/26 04:02:36;;;;;;;11.55;7.65;;;20.60;94.70;;;;;;5010008;23;20092;-71
2023/06/26 04:05:03;;;;;;;9.75;7.53;;;20.40;94.80;;;;;;4995729;28;20129;-72
2023/06/26 04:07:29;;;;;;;10.00;8.02;;;20.30;95.10;;;;;;4995771;28;20037;-72
2023/06/26 04:09:54;;;;;;;11.40;8.30;;;20.40;95.10;;;;;;4978240;28;20030;-72
2023/06/26 04:12:20;;;;;;;10.50;7.72;;;20.30;95.30;;;;;;4995495;28;20027;-71
2023/06/26 04:14:45;;;;;;;12.20;7.63;;;20.40;95.20;;;;;;4978595;28;20475;-72
2023/06/26 04:17:11;;;;;;;11.55;8.40;;;20.40;95.20;;;;;;4995238;28;20037;-72
2023/06/26 04:19:37;;;;;;;11.50;8.20;;;20.40;95.30;;;;;;4978312;28;20023;-72
2023/06/26 04:22:03;;;;;;;11.88;7.70;;;20.40;95.60;;;;;;4978096;28;20073;-72
2023/06/26 04:24:28;;;;;;;10.57;7.93;;;20.60;95.30;;;;;;4978042;28;20022;-71
2023/06/26 04:26:56;;;;;;;9.90;7.40;;;20.70;95.10;;;;;;4995561;28;20026;-71
2023/06/26 04:29:25;;;;;;;16.85;8.18;;;20.80;95.10;;;;;;4995844;28;20018;-70
2023/06/26 04:31:51;;;;;;;12.60;8.25;;;20.90;95.10;;;;;;4995260;28;20463;-71
2023/06/26 04:34:16;;;;;;;10.80;7.65;;;20.90;95.00;;;;;;4985946;28;20026;-72
2023/06/26 04:36:46;;;;;;;9.77;7.43;;;20.90;95.10;;;;;;4958727;28;20046;-71
2023/06/26 04:39:11;;;;;;;8.63;7.18;;;21.00;95.00;;;;;;4977119;28;20108;-71
2023/06/26 04:41:37;;;;;;;10.05;7.63;;;20.90;95.10;;;;;;4976393;28;20019;-69
2023/06/26 04:44:03;;;;;;;11.55;7.22;;;20.90;94.90;;;;;;4986495;28;20108;-69
2023/06/26 04:46:28;;;;;;;8.68;6.80;;;21.00;94.80;;;;;;4975873;28;20511;-70
2023/06/26 04:48:54;;;;;;;10.98;7.03;;;21.10;94.70;;;;;;4963830;28;20101;-68
2023/06/26 04:51:20;;;;;;;10.85;7.68;;;21.10;94.40;;;;;;4990760;28;20030;-69
2023/06/26 04:53:47;;;;;;;10.77;6.65;;;21.00;94.60;;;;;;4995439;28;20041;-69
2023/06/26 04:56:13;;;;;;;11.15;7.50;;;21.10;94.80;;;;;;4978176;28;20023;-68
2023/06/26 04:58:38;;;;;;;8.45;7.03;;;21.10;94.90;;;;;;4998211;28;20085;-69
2023/06/26 05:01:06;;;;;;;10.18;7.43;;;21.10;95.20;;;;;;5001055;28;20038;-69
2023/06/26 05:03:32;;;;;;;9.88;7.28;;;21.10;95.40;;;;;;5002075;28;20487;-69
2023/06/26 05:05:57;;;;;;;10.07;7.93;;;21.20;95.70;;;;;;5001466;28;20038;-69
2023/06/26 05:08:26;;;;;;;12.23;7.28;;;21.10;96.00;;;;;;5001321;28;20479;-68
2023/06/26 05:10:53;;;;;;;10.75;7.70;;;21.10;96.40;;;;;;5002512;28;20015;-68
2023/06/26 05:13:19;;;;;;;9.63;7.68;;;21.20;96.30;;;;;;4982161;28;20022;-68
2023/06/26 05:15:46;;;;;;;11.45;7.15;;;21.40;96.30;;;;;;5001785;28;20034;-70
2023/06/26 05:18:11;;;;;;;10.25;6.95;;;21.30;96.30;;;;;;5001347;28;20033;-69
2023/06/26 05:20:37;;;;;;;10.68;7.70;;;21.30;96.50;;;;;;4986266;28;20050;-69
2023/06/26 05:23:04;;;;;;;13.80;7.63;;;21.30;96.60;;;;;;4999443;28;20030;-68
2023/06/26 05:25:31;;;;;;;10.45;7.40;;;21.40;96.70;;;;;;4997728;28;20150;-67
2023/06/26 05:27:57;;;;;;;10.27;8.20;;;21.50;96.80;;;;;;4976747;28;20022;-67
2023/06/26 05:30:27;;;;;;;11.30;8.15;;;21.60;97.10;;;;;;4993642;28;20049;-67
2023/06/26 05:32:54;;;;;;;12.55;8.48;;;21.60;97.20;;;;;;4991743;28;20043;-67
2023/06/26 05:35:23;;;;;;;10.85;8.25;;;21.80;97.20;;;;;;4969353;28;20031;-67
2023/06/26 05:37:50;;;;;;;11.18;8.40;;;21.90;97.10;;;;;;4978955;28;20396;-66
2023/06/26 05:40:18;;;;;;;10.38;7.65;;;21.90;97.30;;;;;;4982352;28;20019;-66
2023/06/26 05:42:44;;;;;;;10.00;7.57;;;21.90;97.20;;;;;;4997157;28;20399;-69
2023/06/26 05:45:10;;;;;;;9.25;7.95;;;22.00;97.10;;;;;;4978467;28;20030;-69
2023/06/26 05:47:36;;;;;;;11.63;7.85;;;21.90;97.40;;;;;;4995493;28;20038;-70
2023/06/26 05:50:02;;;;;;;12.57;7.75;;;21.80;97.70;;;;;;4996865;28;20479;-70
2023/06/26 05:52:28;;;;;;;;;;;21.80;98.00;;;;;;4987802;28;20038;-71
2023/06/26 05:54:54;;;;;;;11.68;7.90;;;21.80;98.30;;;;;;4972639;28;19990;-70
2023/06/26 05:57:20;;;;;;;10.60;7.75;;;21.80;98.30;;;;;;4977783;28;20363;-64
2023/06/26 05:59:46;;;;;;;;;;;21.90;98.30;;;;;;4991718;28;20026;-62
2023/06/26 06:02:12;;;;;;;12.73;8.25;;;21.90;98.20;;;;;;4993978;28;19913;-62
2023/06/26 06:04:38;;;;;;;12.15;8.35;;;22.00;98.10;;;;;;4994881;28;20026;-62
2023/06/26 06:07:04;;;;;;;10.77;7.45;;;22.10;98.10;;;;;;4994403;28;20122;-60
2023/06/26 06:09:30;;;;;;;;;;;22.20;97.90;;;;;;4995213;28;20035;-62
2023/06/26 06:11:55;;;;;;;10.02;7.50;;;22.30;97.80;;;;;;4994564;28;19956;-61
2023/06/26 06:14:21;;;;;;;9.50;7.60;;;22.40;97.50;;;;;;4998822;28;20085;-61
2023/06/26 06:16:46;;;;;;;;;;;22.50;97.30;;;;;;4982523;28;20030;-63
2023/06/26 06:19:13;;;;;;;11.27;7.35;;;22.60;97.40;;;;;;5000566;28;19912;-63
2023/06/26 06:21:39;;;;;;;12.15;8.25;;;22.70;97.00;;;;;;4997388;28;20022;-63
2023/06/26 06:24:06;;;;;;;11.80;7.68;;;22.80;96.90;;;;;;4996500;28;20037;-61
2023/06/26 06:26:32;;;;;;;11.05;7.65;;;22.90;96.50;;;;;;4994788;28;20547;-61
2023/06/26 06:28:57;;;;;;;9.90;7.18;;;22.90;96.50;;;;;;4994138;28;20072;-61
2023/06/26 06:31:23;;;;;;;10.95;7.45;;;22.90;96.70;;;;;;4994004;28;20066;-60
2023/06/26 06:33:48;;;;;;;9.93;8.10;;;23.00;96.60;;;;;;4993951;28;20034;-61
2023/06/26 06:36:14;;;;;;;;;;;23.10;96.50;;;;;;4994839;28;20030;-60
2023/06/26 06:38:43;;;;;;;10.95;7.22;;;23.20;96.40;;;;;;4994398;28;20251;-60
2023/06/26 06:41:09;;;;;;;14.85;7.60;;;23.30;96.30;;;;;;4994041;28;20022;-61
2023/06/26 06:43:35;;;;;;;8.85;6.68;;;23.40;95.90;;;;;;4995679;28;20073;-60
2023/06/26 06:46:01;;;;;;;10.93;7.15;;;23.50;95.70;;;;;;4995981;28;20049;-61
2023/06/26 06:48:26;;;;;;;7.95;6.82;;;23.70;95.40;;;;;;4993630;28;20045;-61
2023/06/26 06:50:52;;;;;;;;;;;23.80;95.10;;;;;;4976931;28;20426;-62
2023/06/26 06:53:20;;;;;;;12.60;7.00;;;24.00;94.80;;;;;;4994534;28;20374;-61
2023/06/26 06:55:46;;;;;;;9.13;6.72;;;24.00;94.40;;;;;;4995354;28;20129;-61
2023/06/26 06:58:11;;;;;;;;;;;24.20;94.10;;;;;;4995947;28;20049;-62
2023/06/26 07:00:37;;;;;;;7.13;6.07;;;24.30;93.70;;;;;;4978705;28;19914;-62
2023/06/26 07:03:02;;;;;;;;;;;24.40;93.40;;;;;;4997428;28;20022;-60
2023/06/26 07:05:28;;;;;;;10.13;6.35;;;24.50;93.20;;;;;;4997163;28;19905;-62
2023/06/26 07:07:53;;;;;;;;;;;24.60;93.00;;;;;;4998126;28;20034;-62
2023/06/26 07:10:19;;;;;;;7.82;6.07;;;24.70;92.80;;;;;;4997733;28;19960;-62
2023/06/26 07:12:45;;;;;;;;;;;24.80;92.50;;;;;;4997671;28;20030;-61
2023/06/26 07:15:10;;;;;;;10.52;6.15;;;24.90;92.40;;;;;;4996944;28;19910;-61
2023/06/26 07:17:37;;;;;;;;;;;25.00;92.30;;;;;;4997833;28;20550;-61
2023/06/26 07:20:07;;;;;;;7.20;6.10;;;25.00;92.00;;;;;;4979714;28;19913;-62
2023/06/26 07:22:33;;;;;;;12.88;6.13;;;25.20;91.90;;;;;;4980180;28;20023;-61
2023/06/26 07:24:58;;;;;;;;;;;25.30;91.70;;;;;;4999084;28;20045;-61
2023/06/26 07:27:24;;;;;;;7.93;5.70;;;25.50;91.30;;;;;;4997468;28;20310;-61
2023/06/26 07:29:49;;;;;;;;;;;25.60;91.20;;;;;;4997420;28;20465;-59
2023/06/26 07:32:15;;;;;;;8.65;6.00;;;25.80;90.70;;;;;;4996831;28;19905;-61
2023/06/26 07:34:40;;;;;;;;;;;26.00;90.10;;;;;;4997592;28;20217;-61
2023/06/26 07:37:06;;;;;;;7.25;5.72;;;26.20;89.40;;;;;;4978909;28;19906;-60
2023/06/26 07:39:31;;;;;;;9.23;6.18;;;26.30;89.00;;;;;;4978711;28;20026;-63
2023/06/26 07:41:59;;;;;;;;;;;26.30;89.20;;;;;;4997012;28;20081;-61
2023/06/26 07:44:24;;;;;;;;;;;26.50;88.60;;;;;;4996703;28;19996;-61
2023/06/26 07:46:50;;;;;;;6.47;5.55;;;26.70;87.60;;;;;;4995737;28;20303;-61
2023/06/26 07:49:15;;;;;;;8.95;5.72;;;27.50;86.40;;;;;;4996376;28;20023;-61
2023/06/26 07:51:41;;;;;;;16.48;12.13;;;29.10;82.50;;;;;;4995996;28;20107;-61
2023/06/26 07:54:06;;;;;;;8.98;7.00;;;30.40;79.20;;;;;;4995779;28;20117;-62
2023/06/26 07:56:53;;;;;;;8.35;5.43;;;31.40;76.40;;;;;;4978555;28;20039;-61
2023/06/26 07:59:18;;;;;;;;;;;31.50;75.30;;;;;;4978792;28;20026;-61
2023/06/26 08:01:44;;;;;;;9.67;5.20;;;30.90;75.90;;;;;;4995370;28;19914;-63
2023/06/26 08:04:11;;;;;;;6.85;5.78;;;30.50;76.50;;;;;;4995725;28;20069;-61
2023/06/26 08:06:40;;;;;;;7.85;5.90;;;30.30;77.10;;;;;;4995900;28;20022;-62
2023/06/26 08:09:07;;;;;;;8.70;5.85;;;30.20;77.70;;;;;;4995805;28;20050;-60
2023/06/26 08:11:33;;;;;;;10.38;5.88;;;30.80;77.20;;;;;;4995295;28;20395;-62
2023/06/26 08:13:59;;;;;;;7.18;5.18;;;32.70;74.50;;;;;;4995420;28;20054;-62
2023/06/26 08:16:25;;;;;;;5.95;5.30;;;34.30;72.00;;;;;;4995623;28;20467;-61
2023/06/26 08:18:50;;;;;;;7.32;5.55;;;35.40;69.40;;;;;;4995133;28;20047;-61
2023/06/26 08:21:16;;;;;;;6.30;5.65;;;36.20;67.40;;;;;;4995465;28;20088;-61
2023/06/26 08:23:41;;;;;;;8.95;5.40;;;35.90;66.90;;;;;;4995161;28;20072;-61
2023/06/26 08:26:07;;;;;;;7.10;5.88;;;35.30;67.20;;;;;;4995503;28;20034;-61
2023/06/26 08:28:33;;;;;;;8.30;5.35;;;34.50;68.10;;;;;;4995355;28;20506;-61
2023/06/26 08:30:59;;;;;;;6.18;5.57;;;34.10;68.90;;;;;;4995451;28;20031;-62
2023/06/26 08:33:25;;;;;;;8.25;5.60;;;33.90;69.20;;;;;;4994852;28;20022;-60
2023/06/26 08:35:50;;;;;;;9.32;6.32;;;34.30;68.40;;;;;;4995348;28;20114;-62
2023/06/26 08:38:16;;;;;;;8.30;5.60;;;34.80;67.70;;;;;;4994981;28;20022;-62
2023/06/26 08:40:43;;;;;;;10.05;5.63;;;35.20;66.60;;;;;;4995205;28;20094;-61
2023/06/26 08:43:08;;;;;;;8.20;6.00;;;34.80;66.90;;;;;;4994876;28;20034;-60
2023/06/26 08:45:35;;;;;;;9.63;5.97;;;34.20;67.70;;;;;;4995351;28;20034;-62
2023/06/26 08:48:03;;;;;;;7.10;5.63;;;34.20;68.30;;;;;;4994781;28;20018;-61
2023/06/26 08:50:33;;;;;;;6.03;5.38;;;34.10;68.10;;;;;;4994989;28;20026;-62
2023/06/26 08:53:18;;;;;;;8.27;6.40;;;33.90;68.60;;;;;;4994812;28;20026;-62
2023/06/26 08:55:44;;;;;;;6.68;5.70;;;34.60;68.10;;;;;;4994682;28;20030;-60
2023/06/26 08:58:12;;;;;;;9.82;5.32;;;34.60;67.90;;;;;;4994978;28;20400;-61
2023/06/26 09:00:38;;;;;;;8.70;5.60;;;34.90;67.80;;;;;;4994378;28;20046;-61
2023/06/26 09:03:05;;;;;;;8.95;5.93;;;36.10;66.00;;;;;;4994384;28;20045;-62
2023/06/26 09:05:31;;;;;;;8.25;5.65;;;36.80;64.70;;;;;;4994798;28;20068;-61
2023/06/26 09:07:58;;;;;;;7.90;4.90;;;37.30;64.00;;;;;;4994859;28;20034;-61
2023/06/26 09:10:24;;;;;;;8.30;4.80;;;36.30;64.20;;;;;;4994565;28;20030;-61
2023/06/26 09:12:50;;;;;;;7.70;5.28;;;35.50;65.30;;;;;;4994659;28;20503;-61
2023/06/26 09:15:19;;;;;;;6.78;5.40;;;35.50;65.70;;;;;;4994636;28;20033;-59
2023/06/26 09:17:44;;;;;;;9.02;5.20;;;35.30;65.60;;;;;;4994185;28;20029;-60
2023/06/26 09:20:10;;;;;;;7.78;5.80;;;34.50;66.80;;;;;;4994457;28;20018;-61
2023/06/26 09:22:40;;;;;;;6.30;5.32;;;34.40;67.50;;;;;;4993760;28;20031;-62
2023/06/26 09:25:07;;;;;;;9.60;5.50;;;35.40;66.30;;;;;;4994610;28;20153;-61
2023/06/26 09:27:32;;;;;;;8.65;5.45;;;35.30;66.20;;;;;;4994648;28;20399;-62
2023/06/26 09:29:58;;;;;;;9.18;5.10;;;35.20;66.30;;;;;;4983835;28;20029;-62
2023/06/26 09:32:24;;;;;;;8.25;5.60;;;33.80;68.70;;;;;;4999327;28;20030;-63
2023/06/26 09:34:53;;;;;;;8.45;5.68;;;32.60;70.20;;;;;;4996208;28;20026;-62
2023/06/26 09:37:19;;;;;;;8.07;5.47;;;33.60;69.20;;;;;;4978080;28;20109;-62
2023/06/26 09:39:45;;;;;;;9.00;5.25;;;33.40;69.80;;;;;;4995523;28;20026;-62
2023/06/26 09:42:13;;;;;;;10.82;6.20;;;34.00;68.90;;;;;;4994477;28;20027;-60
2023/06/26 09:44:45;;;;;;;14.98;5.97;;;34.50;68.10;;;;;;4994128;28;20037;-60
2023/06/26 09:47:10;;;;;;;9.80;5.70;;;34.50;68.10;;;;;;4994041;28;20023;-59
2023/06/26 09:49:36;;;;;;;8.27;5.30;;;35.00;67.70;;;;;;4994532;28;20061;-60
2023/06/26 09:52:02;;;;;;;7.72;5.22;;;35.40;67.50;;;;;;4976653;28;20034;-62
2023/06/26 09:54:30;;;;;;;10.43;5.88;;;36.60;66.00;;;;;;4994266;28;20036;-62
2023/06/26 09:57:06;;;;;;;5.60;5.00;;;37.20;65.00;;;;;;4976444;28;20487;-61
2023/06/26 09:59:32;;;;;;;6.03;5.15;;;37.70;64.50;;;;;;4993930;28;20058;-61
2023/06/26 10:01:59;;;;;;;7.25;5.38;;;37.80;63.70;;;;;;4993290;28;20042;-61
2023/06/26 10:04:25;;;;;;;9.45;5.38;;;38.20;63.40;;;;;;4993936;28;20050;-61
2023/06/26 10:06:54;;;;;;;6.43;5.32;;;38.30;63.40;;;;;;4994233;28;20030;-62
2023/06/26 10:09:20;;;;;;;8.98;5.90;;;38.30;63.10;;;;;;4993869;28;20054;-61
2023/06/26 10:11:53;;;;;;;5.65;5.05;;;38.10;63.20;;;;;;4994271;28;20026;-62
2023/06/26 10:14:22;;;;;;;8.10;5.63;;;38.30;63.30;;;;;;5015608;23;20038;-63
2023/06/26 10:16:49;;;;;;;6.78;5.25;;;38.70;62.90;;;;;;4972051;28;20038;-65
2023/06/26 10:19:23;;;;;;;6.43;5.53;;;39.50;62.00;;;;;;4974530;28;20095;-64
2023/06/26 10:21:51;;;;;;;7.13;4.97;;;39.70;61.00;;;;;;4974079;28;20026;-63
2023/06/26 10:24:17;;;;;;;8.20;5.50;;;38.90;61.70;;;;;;4974058;28;20089;-64
2023/06/26 10:26:46;;;;;;;7.72;5.40;;;38.20;62.70;;;;;;4956851;28;20058;-65
2023/06/26 10:29:14;;;;;;;7.45;5.10;;;38.90;61.90;;;;;;4954850;28;20046;-65
2023/06/26 10:31:45;;;;;;;6.32;4.85;;;39.10;61.60;;;;;;4972205;28;20019;-64
2023/06/26 10:34:11;;;;;;;8.13;5.45;;;39.70;60.70;;;;;;4973636;28;20145;-65
2023/06/26 10:36:37;;;;;;;8.25;5.05;;;39.50;60.90;;;;;;4976165;28;20023;-65
2023/06/26 10:39:06;;;;;;;6.13;5.07;;;39.50;60.50;;;;;;4975958;28;20038;-66
2023/06/26 10:41:42;;;;;;;6.28;5.03;;;39.70;60.40;;;;;;4976017;28;20102;-64
2023/06/26 10:44:09;;;;;;;7.45;4.65;;;39.70;60.10;;;;;;4977289;28;20031;-64
2023/06/26 10:46:58;;;;;;;6.13;4.97;;;39.60;60.00;;;;;;4994831;28;20057;-65
2023/06/26 10:49:29;;;;;;;9.88;5.53;;;39.30;59.90;;;;;;4997170;28;20033;-65
2023/06/26 10:51:58;;;;;;;7.97;5.07;;;38.60;60.50;;;;;;4979456;28;20030;-65
2023/06/26 10:54:28;;;;;;;7.18;5.53;;;38.60;60.80;;;;;;4996821;28;20444;-65
2023/06/26 10:56:58;;;;;;;11.27;5.53;;;39.00;60.20;;;;;;4979094;28;20030;-63
2023/06/26 10:59:25;;;;;;;5.15;4.65;;;39.50;59.70;;;;;;4979046;28;20097;-64
2023/06/26 11:01:56;;;;;;;8.85;4.90;;;38.60;60.10;;;;;;4996642;28;20022;-65
2023/06/26 11:04:44;;;;;;;5.82;5.20;;;38.10;61.10;;;;;;4996696;28;20089;-65
2023/06/26 11:07:23;;;;;;;8.68;6.28;;;37.30;61.80;;;;;;4997140;28;20034;-65
2023/06/26 11:10:02;;;;;;;6.90;5.82;;;36.60;62.60;;;;;;4996572;28;20426;-63
2023/06/26 11:12:41;;;;;;;9.10;5.20;;;36.00;63.10;;;;;;4996817;28;20026;-65
2023/06/26 11:15:12;;;;;;;9.05;5.20;;;35.10;64.50;;;;;;4996249;28;20069;-64
2023/06/26 11:17:39;;;;;;;9.05;5.43;;;34.30;65.70;;;;;;4997205;28;20022;-65
2023/06/26 11:20:13;;;;;;;5.40;4.90;;;34.00;66.10;;;;;;4996913;28;20047;-64
2023/06/26 11:22:40;;;;;;;8.70;5.15;;;33.60;65.90;;;;;;4997298;28;20053;-64
2023/06/26 11:25:07;;;;;;;9.15;5.20;;;33.20;66.40;;;;;;4997246;28;20030;-65
2023/06/26 11:27:42;;;;;;;7.30;5.03;;;33.00;66.40;;;;;;4997010;28;20033;-65
2023/06/26 11:30:10;;;;;;;13.38;5.07;;;32.60;67.20;;;;;;4997102;28;20156;-65
2023/06/26 11:32:37;;;;;;;7.95;5.13;;;32.70;66.70;;;;;;4997321;28;20476;-65
2023/06/26 11:35:04;;;;;;;6.28;4.60;;;32.50;67.10;;;;;;4996962;28;20044;-65
2023/06/26 11:37:30;;;;;;;9.40;4.53;;;32.40;67.10;;;;;;4997105;28;20046;-65
2023/06/26 11:39:56;;;;;;;12.48;5.55;;;32.10;67.10;;;;;;4997149;28;20077;-65
2023/06/26 11:42:22;;;;;;;11.27;5.43;;;31.90;67.60;;;;;;4996545;28;20434;-64
2023/06/26 11:44:48;;;;;;;12.07;5.55;;;31.80;68.10;;;;;;4995819;28;20439;-63
2023/06/26 11:47:15;;;;;;;11.90;5.00;;;31.70;68.10;;;;;;4995969;28;20069;-65
2023/06/26 11:49:43;;;;;;;15.93;5.45;;;31.70;68.40;;;;;;4996405;28;20387;-64
2023/06/26 11:52:08;;;;;;;7.30;4.60;;;31.80;67.80;;;;;;4996451;28;20076;-65
2023/06/26 11:54:34;;;;;;;15.45;5.20;;;31.80;67.50;;;;;;4996333;28;20031;-64
2023/06/26 11:57:00;;;;;;;26.08;6.47;;;31.70;67.90;;;;;;4996571;28;20103;-65
2023/06/26 11:59:37;;;;;;;11.77;5.07;;;31.70;67.20;;;;;;4995655;28;20120;-64
2023/06/26 12:02:10;;;;;;;7.45;5.00;;;31.40;67.00;;;;;;4995757;28;20022;-64
2023/06/26 12:04:38;;;;;;;8.05;4.43;;;31.40;66.90;;;;;;4995621;28;20476;-64
2023/06/26 12:07:07;;;;;;;5.65;4.50;;;31.30;66.50;;;;;;4996022;28;20387;-64
2023/06/26 12:09:33;;;;;;;7.75;4.53;;;31.10;67.00;;;;;;4995788;28;20034;-65
2023/06/26 12:12:00;;;;;;;6.35;3.78;;;31.00;67.30;;;;;;4996183;28;20030;-65
2023/06/26 12:14:28;;;;;;;5.93;4.00;;;31.00;66.30;;;;;;4978198;28;20034;-67
2023/06/26 12:16:54;;;;;;;5.22;3.72;;;31.00;66.30;;;;;;4995385;28;20454;-65
2023/06/26 12:19:26;;;;;;;5.97;3.92;;;30.90;66.60;;;;;;4995542;28;20383;-64
2023/06/26 12:21:52;;;;;;;10.00;3.95;;;30.90;66.40;;;;;;4995608;28;20018;-64
2023/06/26 12:24:23;;;;;;;5.63;3.58;;;31.00;66.00;;;;;;4995539;28;20086;-63
2023/06/26 12:26:53;;;;;;;7.25;4.38;;;30.90;65.90;;;;;;4995205;28;20104;-64
2023/06/26 12:29:20;;;;;;;7.72;3.50;;;30.80;65.80;;;;;;4995219;28;20077;-64
2023/06/26 12:31:50;;;;;;;8.43;3.60;;;30.60;65.50;;;;;;4994928;28;20452;-64
2023/06/26 12:34:20;;;;;;;9.25;3.78;;;30.50;65.70;;;;;;4994986;28;20038;-65
2023/06/26 12:36:50;;;;;;;9.38;3.75;;;30.40;65.50;;;;;;4994943;28;20033;-65
2023/06/26 12:39:20;;;;;;;22.05;5.18;;;30.40;65.80;;;;;;4994976;28;20022;-64
2023/06/26 12:41:46;;;;;;;7.07;3.63;;;30.50;66.60;;;;;;4994860;28;20026;-65
2023/06/26 12:44:38;;;;;;;5.63;3.60;;;30.50;65.60;;;;;;4994924;28;20026;-65
2023/06/26 12:47:06;;;;;;;10.18;3.42;;;30.70;65.70;;;;;;4992496;28;20046;-64
2023/06/26 12:49:34;;;;;;;7.32;3.10;;;30.70;65.50;;;;;;4994911;28;20112;-65
2023/06/26 12:52:01;;;;;;;10.43;5.82;;;30.50;65.00;;;;;;4994490;28;20088;-64
2023/06/26 12:54:27;;;;;;;4.82;3.30;;;30.30;65.40;;;;;;4994529;28;20026;-65
2023/06/26 12:56:53;;;;;;;5.70;3.40;;;30.40;65.90;;;;;;4976670;28;20026;-65
2023/06/26 12:59:19;;;;;;;7.13;3.45;;;30.70;65.20;;;;;;4994204;28;20387;-63
2023/06/26 13:01:44;;;;;;;5.97;3.38;;;30.80;65.20;;;;;;4994666;28;20023;-65
2023/06/26 13:04:10;;;;;;;8.50;5.03;;;30.80;65.10;;;;;;4976888;28;20057;-65
2023/06/26 13:06:36;;;;;;;6.15;3.67;;;30.90;64.70;;;;;;4990996;28;20816;-65
2023/06/26 13:09:04;;;;;;;6.00;2.85;;;30.90;64.40;;;;;;4987691;28;20403;-64
2023/06/26 13:11:30;;;;;;;5.88;3.17;;;30.90;64.50;;;;;;4988434;28;20129;-65
2023/06/26 13:13:56;;;;;;;9.85;3.70;;;30.80;64.90;;;;;;4994131;28;20471;-65
2023/06/26 13:16:22;;;;;;;8.10;3.45;;;30.90;64.60;;;;;;4978647;28;20035;-65
2023/06/26 13:18:48;;;;;;;7.97;3.65;;;31.10;64.80;;;;;;4994167;28;20460;-65
2023/06/26 13:21:13;;;;;;;6.43;3.30;;;31.10;64.40;;;;;;4990874;28;20025;-66
2023/06/26 13:23:39;;;;;;;6.20;3.50;;;31.20;64.30;;;;;;4992759;28;20027;-64
2023/06/26 13:26:05;;;;;;;7.38;3.92;;;31.20;64.10;;;;;;4991988;28;20066;-68
2023/06/26 13:28:31;;;;;;;5.35;3.97;;;31.20;64.30;;;;;;4992110;28;20080;-67
2023/06/26 13:30:57;;;;;;;5.93;3.97;;;31.20;64.50;;;;;;4991945;28;20474;-69
2023/06/26 13:33:25;;;;;;;8.82;3.83;;;31.30;64.60;;;;;;4991595;28;20101;-71
2023/06/26 13:35:52;;;;;;;6.90;3.97;;;31.40;64.10;;;;;;4991537;28;20073;-69
2023/06/26 13:38:19;;;;;;;7.70;4.78;;;31.40;63.30;;;;;;4974798;28;20533;-70
2023/06/26 13:40:44;;;;;;;10.10;4.90;;;31.20;63.90;;;;;;4993868;28;20438;-70
2023/06/26 13:43:09;;;;;;;7.68;5.20;;;31.20;64.20;;;;;;4976330;28;20109;-70
2023/06/26 13:45:35;;;;;;;8.32;5.00;;;31.10;64.10;;;;;;4994343;28;20028;-71
2023/06/26 13:48:01;;;;;;;5.95;4.75;;;31.00;63.90;;;;;;4976417;28;20029;-70
2023/06/26 13:50:26;;;;;;;6.85;5.03;;;31.00;64.40;;;;;;4977002;28;20049;-70
2023/06/26 13:52:52;;;;;;;9.13;5.60;;;30.90;64.00;;;;;;4993144;28;20129;-69
2023/06/26 13:55:18;;;;;;;11.73;5.10;;;30.80;64.20;;;;;;4977873;28;20035;-71
2023/06/26 13:57:45;;;;;;;7.78;5.28;;;30.80;64.50;;;;;;4972964;28;20073;-69
2023/06/26 14:00:12;;;;;;;7.90;5.55;;;30.80;64.90;;;;;;4983598;28;20027;-69
2023/06/26 14:02:37;;;;;;;10.73;5.63;;;30.80;64.90;;;;;;4975657;28;20038;-69
2023/06/26 14:05:04;;;;;;;10.15;5.55;;;30.80;65.20;;;;;;4977100;28;20033;-69
2023/06/26 14:07:29;;;;;;;9.82;5.35;;;30.90;64.90;;;;;;4994105;28;20049;-69
2023/06/26 14:09:55;;;;;;;8.57;5.75;;;31.00;64.60;;;;;;4979136;28;20026;-69
2023/06/26 14:12:21;;;;;;;43.17;21.27;;;31.00;64.70;;;;;;4980024;28;20026;-70
2023/06/26 14:14:46;;;;;;;15.55;8.32;;;31.00;65.40;;;;;;4979648;28;20026;-69
2023/06/26 14:17:16;;;;;;;13.10;8.32;;;31.10;64.80;;;;;;4979563;28;20018;-69
2023/06/26 14:19:41;;;;;;;12.90;8.13;;;31.20;65.00;;;;;;4997338;28;20066;-70
2023/06/26 14:22:07;;;;;;;10.60;7.07;;;31.10;64.60;;;;;;4997790;28;20058;-71
2023/06/26 14:24:32;;;;;;;12.45;6.55;;;31.10;63.90;;;;;;4997262;28;20034;-70
2023/06/26 14:26:58;;;;;;;11.10;6.30;;;31.00;64.20;;;;;;4980040;28;20023;-71
2023/06/26 14:29:23;;;;;;;9.27;5.35;;;30.90;63.80;;;;;;4979823;28;20030;-71
2023/06/26 14:31:51;;;;;;;10.73;5.75;;;30.80;63.90;;;;;;4994071;28;20026;-70
2023/06/26 14:34:17;;;;;;;9.38;6.07;;;30.80;64.30;;;;;;4978596;28;20379;-70
2023/06/26 14:36:43;;;;;;;9.00;5.63;;;30.80;63.60;;;;;;4997468;28;20069;-71
2023/06/26 14:39:08;;;;;;;10.20;6.80;;;30.70;64.20;;;;;;4981006;28;20111;-72
2023/06/26 14:41:34;;;;;;;9.18;5.57;;;30.60;64.50;;;;;;4976332;28;20429;-71
2023/06/26 14:44:00;;;;;;;17.38;5.63;;;30.60;63.70;;;;;;4977565;28;20041;-71
2023/06/26 14:46:26;;;;;;;8.70;4.75;;;30.50;62.30;;;;;;4977601;28;20432;-71
2023/06/26 14:48:51;;;;;;;10.90;4.80;;;30.40;62.60;;;;;;4977332;28;20023;-69
2023/06/26 14:51:17;;;;;;;11.10;4.20;;;30.50;62.30;;;;;;4976174;28;20026;-71
2023/06/26 14:53:42;;;;;;;6.18;3.90;;;30.40;61.00;;;;;;4977441;28;20077;-72
2023/06/26 14:56:08;;;;;;;5.43;3.47;;;30.30;60.60;;;;;;4975932;28;20113;-70
2023/06/26 14:58:33;;;;;;;9.25;3.40;;;30.20;59.40;;;;;;4975991;28;20054;-70
2023/06/26 15:00:59;;;;;;;8.70;4.15;;;30.10;59.60;;;;;;4977451;28;20380;-69
2023/06/26 15:03:25;;;;;;;7.65;3.10;;;30.20;58.90;;;;;;4975899;28;20464;-72
2023/06/26 15:05:50;;;;;;;4.90;2.42;;;30.30;58.70;;;;;;4976004;28;20030;-71
2023/06/26 15:08:16;;;;;;;8.38;2.45;;;30.40;57.70;;;;;;4977220;28;20030;-71
2023/06/26 15:10:41;;;;;;;7.03;2.60;;;30.40;58.00;;;;;;4977125;28;20044;-71
2023/06/26 15:13:07;;;;;;;6.68;2.50;;;30.40;57.80;;;;;;4977020;28;20035;-72
2023/06/26 15:15:33;;;;;;;3.35;2.30;;;30.20;57.60;;;;;;4975568;28;20416;-72
2023/06/26 15:17:59;;;;;;;5.97;1.90;;;30.10;56.90;;;;;;4989815;28;20046;-72
2023/06/26 15:20:25;;;;;;;7.53;2.10;;;30.00;55.10;;;;;;4978691;28;20076;-71
2023/06/26 15:22:50;;;;;;;5.97;2.38;;;29.90;53.90;;;;;;4979562;28;20023;-70
2023/06/26 15:25:16;;;;;;;5.82;2.17;;;29.90;53.50;;;;;;4975766;28;20435;-74
2023/06/26 15:27:42;;;;;;;7.82;2.38;;;29.90;53.10;;;;;;4959595;28;20039;-73
2023/06/26 15:30:08;;;;;;;7.25;2.22;;;29.80;52.90;;;;;;4959713;28;20038;-74
2023/06/26 15:32:34;;;;;;;4.47;2.10;;;29.80;52.80;;;;;;4977255;28;20078;-75
2023/06/26 15:35:00;;;;;;;4.05;2.22;;;29.80;52.70;;;;;;4963579;28;20122;-74
2023/06/26 15:37:25;;;;;;;2.88;1.92;;;29.80;52.90;;;;;;4997290;28;20022;-74
2023/06/26 15:39:51;;;;;;;7.88;2.78;;;29.70;52.90;;;;;;4996068;28;20029;-75
2023/06/26 15:42:16;;;;;;;6.40;2.22;;;29.70;52.80;;;;;;4978539;28;20034;-74
2023/06/26 15:44:42;;;;;;;3.72;2.20;;;29.70;53.20;;;;;;4986778;28;20035;-74
2023/06/26 15:47:08;;;;;;;4.65;2.17;;;29.80;53.90;;;;;;4959862;28;20027;-76
2023/06/26 15:49:34;;;;;;;6.10;2.25;;;29.80;54.50;;;;;;4959803;28;20395;-74
2023/06/26 15:52:00;;;;;;;9.10;2.15;;;29.80;54.50;;;;;;4978268;28;20030;-74
2023/06/26 15:54:26;;;;;;;4.10;1.92;;;29.70;54.30;;;;;;4978120;28;20080;-74
2023/06/26 15:56:51;;;;;;;5.78;2.00;;;29.60;53.30;;;;;;4978250;28;20047;-74
2023/06/26 15:59:18;;;;;;;8.43;1.70;;;29.50;53.50;;;;;;4983551;28;20034;-72
2023/06/26 16:01:45;;;;;;;4.70;1.95;;;29.30;53.70;;;;;;4976492;28;20019;-73
2023/06/26 16:04:12;;;;;;;4.47;1.98;;;29.10;54.30;;;;;;4968640;28;20033;-73
2023/06/26 16:06:37;;;;;;;4.53;1.90;;;29.10;54.60;;;;;;4976830;28;20100;-72
2023/06/26 16:09:03;;;;;;;4.72;2.08;;;29.00;55.00;;;;;;4978465;28;20022;-72
2023/06/26 16:11:28;;;;;;;6.13;2.13;;;29.00;55.00;;;;;;4979566;28;20034;-70
2023/06/26 16:13:55;;;;;;;5.63;2.85;;;29.00;54.90;;;;;;4994956;28;20038;-69
2023/06/26 16:16:20;;;;;;;5.03;2.30;;;28.90;54.90;;;;;;4996731;28;20361;-70
2023/06/26 16:18:46;;;;;;;7.25;2.33;;;28.90;55.20;;;;;;4995512;28;20117;-68
2023/06/26 16:21:11;;;;;;;4.45;2.03;;;28.70;55.20;;;;;;4995499;28;20077;-69
2023/06/26 16:23:37;;;;;;;5.72;1.98;;;28.70;55.50;;;;;;4994994;28;20034;-69
2023/06/26 16:26:03;;;;;;;4.80;2.30;;;28.70;55.70;;;;;;4995055;28;20019;-73
2023/06/26 16:28:28;;;;;;;3.83;2.17;;;28.60;55.90;;;;;;4964637;28;20035;-72
2023/06/26 16:30:54;;;;;;;8.85;2.13;;;28.70;56.20;;;;;;4994332;28;20420;-71
2023/06/26 16:33:19;;;;;;;7.80;1.85;;;28.70;56.40;;;;;;4994626;28;20058;-72
2023/06/26 16:35:45;;;;;;;4.60;2.10;;;28.80;56.60;;;;;;4993773;28;20022;-72
2023/06/26 16:38:10;;;;;;;4.90;1.75;;;28.70;56.70;;;;;;4965564;28;20035;-72
2023/06/26 16:40:37;;;;;;;5.07;1.92;;;28.60;56.80;;;;;;4958582;28;20422;-72
2023/06/26 16:43:03;;;;;;;3.63;1.70;;;28.60;56.80;;;;;;4958053;28;20110;-72
2023/06/26 16:45:28;;;;;;;7.70;1.92;;;28.60;57.10;;;;;;4975203;28;20031;-70
2023/06/26 16:47:54;;;;;;;6.43;2.08;;;28.50;57.20;;;;;;4957979;28;20031;-71